sensor_id;sensor_type;location;lat;lon;timestamp;P1;durP1;ratioP1;P2;durP2;ratioP2
830;SDS011;397;50.564;7.272;2022-11-23T00:00:44;9.83;;;2.10;;
830;SDS011;397;50.564;7.272;2022-11-23T00:03:13;5.40;;;2.40;;
830;SDS011;397;50.564;7.272;2022-11-23T00:05:41;7.50;;;2.23;;
830;SDS011;397;50.564;7.272;2022-11-23T00:08:08;5.63;;;1.80;;
830;SDS011;397;50.564;7.272;2022-11-23T00:10:36;6.10;;;2.77;;
830;SDS011;397;50.564;7.272;2022-11-23T00:13:03;4.13;;;2.20;;
830;SDS011;397;50.564;7.272;2022-11-23T00:15:31;7.70;;;1.80;;
830;SDS011;397;50.564;7.272;2022-11-23T00:18:00;6.47;;;2.13;;
830;SDS011;397;50.564;7.272;2022-11-23T00:20:27;4.10;;;2.00;;
830;SDS011;397;50.564;7.272;2022-11-23T00:22:55;7.17;;;1.70;;
830;SDS011;397;50.564;7.272;2022-11-23T00:25:22;5.87;;;2.10;;
830;SDS011;397;50.564;7.272;2022-11-23T00:27:50;9.53;;;2.70;;
830;SDS011;397;50.564;7.272;2022-11-23T00:30:17;5.63;;;2.23;;
830;SDS011;397;50.564;7.272;2022-11-23T00:32:45;7.40;;;2.17;;
830;SDS011;397;50.564;7.272;2022-11-23T00:35:12;5.03;;;1.90;;
830;SDS011;397;50.564;7.272;2022-11-23T00:37:40;7.63;;;1.60;;
830;SDS011;397;50.564;7.272;2022-11-23T00:40:08;7.70;;;2.27;;
830;SDS011;397;50.564;7.272;2022-11-23T00:42:36;6.77;;;2.00;;
830;SDS011;397;50.564;7.272;2022-11-23T00:45:03;3.33;;;1.90;;
830;SDS011;397;50.564;7.272;2022-11-23T00:47:31;4.87;;;1.70;;
830;SDS011;397;50.564;7.272;2022-11-23T00:49:59;8.60;;;1.60;;
830;SDS011;397;50.564;7.272;2022-11-23T00:52:26;9.10;;;2.10;;
830;SDS011;397;50.564;7.272;2022-11-23T00:54:54;7.03;;;2.00;;
830;SDS011;397;50.564;7.272;2022-11-23T00:57:22;4.10;;;1.90;;
830;SDS011;397;50.564;7.272;2022-11-23T00:59:49;6.53;;;1.80;;
830;SDS011;397;50.564;7.272;2022-11-23T01:02:17;4.87;;;2.37;;
830;SDS011;397;50.564;7.272;2022-11-23T01:04:44;5.57;;;2.30;;
830;SDS011;397;50.564;7.272;2022-11-23T01:07:12;6.10;;;1.57;;
830;SDS011;397;50.564;7.272;2022-11-23T01:09:39;3.70;;;1.83;;
830;SDS011;397;50.564;7.272;2022-11-23T01:12:07;3.90;;;1.60;;
830;SDS011;397;50.564;7.272;2022-11-23T01:14:34;7.57;;;2.97;;
830;SDS011;397;50.564;7.272;2022-11-23T01:17:01;6.43;;;2.57;;
830;SDS011;397;50.564;7.272;2022-11-23T01:19:29;7.10;;;3.07;;
830;SDS011;397;50.564;7.272;2022-11-23T01:21:56;8.93;;;2.30;;
830;SDS011;397;50.564;7.272;2022-11-23T01:24:24;7.83;;;2.40;;
830;SDS011;397;50.564;7.272;2022-11-23T01:26:52;4.50;;;2.13;;
830;SDS011;397;50.564;7.272;2022-11-23T01:29:21;5.80;;;2.37;;
830;SDS011;397;50.564;7.272;2022-11-23T01:31:49;8.20;;;1.70;;
830;SDS011;397;50.564;7.272;2022-11-23T01:34:17;8.83;;;3.30;;
830;SDS011;397;50.564;7.272;2022-11-23T01:36:44;4.70;;;2.27;;
830;SDS011;397;50.564;7.272;2022-11-23T01:39:12;7.00;;;2.30;;
830;SDS011;397;50.564;7.272;2022-11-23T01:41:41;8.10;;;2.30;;
830;SDS011;397;50.564;7.272;2022-11-23T01:44:26;6.07;;;2.07;;
830;SDS011;397;50.564;7.272;2022-11-23T01:46:58;3.97;;;1.77;;
830;SDS011;397;50.564;7.272;2022-11-23T01:49:30;9.60;;;2.53;;
830;SDS011;397;50.564;7.272;2022-11-23T01:52:02;9.80;;;2.90;;
830;SDS011;397;50.564;7.272;2022-11-23T01:54:35;7.90;;;2.70;;
830;SDS011;397;50.564;7.272;2022-11-23T01:57:03;4.57;;;2.90;;
830;SDS011;397;50.564;7.272;2022-11-23T01:59:32;4.10;;;1.73;;
830;SDS011;397;50.564;7.272;2022-11-23T02:02:02;6.53;;;2.27;;
830;SDS011;397;50.564;7.272;2022-11-23T02:04:32;6.03;;;1.90;;
830;SDS011;397;50.564;7.272;2022-11-23T02:07:01;5.63;;;2.20;;
830;SDS011;397;50.564;7.272;2022-11-23T02:09:30;4.60;;;2.13;;
830;SDS011;397;50.564;7.272;2022-11-23T02:11:59;5.17;;;1.70;;
830;SDS011;397;50.564;7.272;2022-11-23T02:14:27;7.50;;;2.37;;
830;SDS011;397;50.564;7.272;2022-11-23T02:16:58;5.27;;;2.00;;
830;SDS011;397;50.564;7.272;2022-11-23T02:19:40;4.83;;;1.87;;
830;SDS011;397;50.564;7.272;2022-11-23T02:22:23;8.93;;;2.07;;
830;SDS011;397;50.564;7.272;2022-11-23T02:24:52;11.33;;;3.20;;
830;SDS011;397;50.564;7.272;2022-11-23T02:27:20;6.67;;;2.50;;
830;SDS011;397;50.564;7.272;2022-11-23T02:29:49;9.73;;;2.30;;
830;SDS011;397;50.564;7.272;2022-11-23T02:32:22;7.17;;;2.63;;
830;SDS011;397;50.564;7.272;2022-11-23T02:34:50;9.20;;;2.33;;
830;SDS011;397;50.564;7.272;2022-11-23T02:37:17;8.60;;;2.60;;
830;SDS011;397;50.564;7.272;2022-11-23T02:39:46;8.43;;;2.50;;
830;SDS011;397;50.564;7.272;2022-11-23T02:42:16;12.33;;;2.93;;
830;SDS011;397;50.564;7.272;2022-11-23T02:45:04;5.60;;;1.87;;
830;SDS011;397;50.564;7.272;2022-11-23T02:47:36;9.53;;;2.33;;
830;SDS011;397;50.564;7.272;2022-11-23T02:50:03;9.00;;;2.47;;
830;SDS011;397;50.564;7.272;2022-11-23T02:52:31;9.23;;;2.83;;
830;SDS011;397;50.564;7.272;2022-11-23T02:54:59;5.77;;;2.57;;
830;SDS011;397;50.564;7.272;2022-11-23T02:57:26;8.50;;;2.53;;
830;SDS011;397;50.564;7.272;2022-11-23T02:59:54;9.30;;;2.20;;
830;SDS011;397;50.564;7.272;2022-11-23T03:02:21;9.10;;;2.03;;
830;SDS011;397;50.564;7.272;2022-11-23T03:04:49;5.13;;;2.00;;
830;SDS011;397;50.564;7.272;2022-11-23T03:07:16;9.77;;;2.90;;
830;SDS011;397;50.564;7.272;2022-11-23T03:09:44;5.50;;;2.17;;
830;SDS011;397;50.564;7.272;2022-11-23T03:12:11;6.77;;;2.33;;
830;SDS011;397;50.564;7.272;2022-11-23T03:14:39;9.43;;;2.43;;
830;SDS011;397;50.564;7.272;2022-11-23T03:17:06;7.73;;;2.17;;
830;SDS011;397;50.564;7.272;2022-11-23T03:19:34;7.37;;;2.47;;
830;SDS011;397;50.564;7.272;2022-11-23T03:22:02;8.53;;;2.37;;
830;SDS011;397;50.564;7.272;2022-11-23T03:24:29;12.03;;;2.43;;
830;SDS011;397;50.564;7.272;2022-11-23T03:26:57;4.80;;;1.93;;
830;SDS011;397;50.564;7.272;2022-11-23T03:29:25;7.90;;;2.90;;
830;SDS011;397;50.564;7.272;2022-11-23T03:31:52;5.53;;;2.00;;
830;SDS011;397;50.564;7.272;2022-11-23T03:34:21;5.40;;;2.23;;
830;SDS011;397;50.564;7.272;2022-11-23T03:36:49;5.13;;;2.00;;
830;SDS011;397;50.564;7.272;2022-11-23T03:39:16;9.60;;;3.23;;
830;SDS011;397;50.564;7.272;2022-11-23T03:41:44;7.93;;;2.70;;
830;SDS011;397;50.564;7.272;2022-11-23T03:44:11;8.00;;;2.57;;
830;SDS011;397;50.564;7.272;2022-11-23T03:46:39;10.90;;;2.17;;
830;SDS011;397;50.564;7.272;2022-11-23T03:49:06;8.77;;;2.20;;
830;SDS011;397;50.564;7.272;2022-11-23T03:51:34;6.43;;;1.80;;
830;SDS011;397;50.564;7.272;2022-11-23T03:54:01;9.97;;;2.60;;
830;SDS011;397;50.564;7.272;2022-11-23T03:56:29;5.73;;;2.07;;
830;SDS011;397;50.564;7.272;2022-11-23T03:58:56;7.40;;;2.17;;
830;SDS011;397;50.564;7.272;2022-11-23T04:01:24;10.00;;;2.40;;
830;SDS011;397;50.564;7.272;2022-11-23T04:03:51;5.70;;;1.73;;
830;SDS011;397;50.564;7.272;2022-11-23T04:06:19;9.73;;;2.23;;
830;SDS011;397;50.564;7.272;2022-11-23T04:08:46;7.60;;;2.80;;
830;SDS011;397;50.564;7.272;2022-11-23T04:11:14;6.17;;;2.10;;
830;SDS011;397;50.564;7.272;2022-11-23T04:13:41;7.33;;;2.50;;
830;SDS011;397;50.564;7.272;2022-11-23T04:16:09;7.27;;;2.10;;
830;SDS011;397;50.564;7.272;2022-11-23T04:18:36;8.00;;;2.03;;
830;SDS011;397;50.564;7.272;2022-11-23T04:21:05;4.80;;;1.50;;
830;SDS011;397;50.564;7.272;2022-11-23T04:23:32;6.00;;;2.40;;
830;SDS011;397;50.564;7.272;2022-11-23T04:26:00;9.97;;;2.60;;
830;SDS011;397;50.564;7.272;2022-11-23T04:28:27;4.10;;;1.97;;
830;SDS011;397;50.564;7.272;2022-11-23T04:30:55;7.33;;;2.10;;
830;SDS011;397;50.564;7.272;2022-11-23T04:33:23;4.60;;;1.90;;
830;SDS011;397;50.564;7.272;2022-11-23T04:35:51;7.47;;;1.87;;
830;SDS011;397;50.564;7.272;2022-11-23T04:38:18;5.53;;;1.97;;
830;SDS011;397;50.564;7.272;2022-11-23T04:40:46;8.47;;;2.50;;
830;SDS011;397;50.564;7.272;2022-11-23T04:43:14;6.33;;;2.97;;
830;SDS011;397;50.564;7.272;2022-11-23T04:45:41;6.93;;;2.37;;
830;SDS011;397;50.564;7.272;2022-11-23T04:48:10;10.00;;;2.40;;
830;SDS011;397;50.564;7.272;2022-11-23T04:50:37;7.17;;;1.80;;
830;SDS011;397;50.564;7.272;2022-11-23T04:53:07;4.00;;;2.60;;
830;SDS011;397;50.564;7.272;2022-11-23T04:55:34;6.40;;;2.40;;
830;SDS011;397;50.564;7.272;2022-11-23T04:58:02;9.40;;;2.43;;
830;SDS011;397;50.564;7.272;2022-11-23T05:00:30;5.70;;;1.97;;
830;SDS011;397;50.564;7.272;2022-11-23T05:02:58;4.10;;;1.50;;
830;SDS011;397;50.564;7.272;2022-11-23T05:05:26;4.53;;;1.47;;
830;SDS011;397;50.564;7.272;2022-11-23T05:07:54;5.33;;;1.80;;
830;SDS011;397;50.564;7.272;2022-11-23T05:10:22;5.87;;;1.90;;
830;SDS011;397;50.564;7.272;2022-11-23T05:12:50;7.90;;;2.50;;
830;SDS011;397;50.564;7.272;2022-11-23T05:15:18;9.63;;;2.80;;
830;SDS011;397;50.564;7.272;2022-11-23T05:17:45;6.33;;;1.93;;
830;SDS011;397;50.564;7.272;2022-11-23T05:20:13;7.47;;;2.60;;
830;SDS011;397;50.564;7.272;2022-11-23T05:22:41;12.93;;;2.40;;
830;SDS011;397;50.564;7.272;2022-11-23T05:25:08;10.27;;;2.30;;
830;SDS011;397;50.564;7.272;2022-11-23T05:27:36;8.03;;;3.17;;
830;SDS011;397;50.564;7.272;2022-11-23T05:30:04;5.60;;;2.10;;
830;SDS011;397;50.564;7.272;2022-11-23T05:32:32;8.27;;;2.40;;
830;SDS011;397;50.564;7.272;2022-11-23T05:34:59;7.50;;;2.40;;
830;SDS011;397;50.564;7.272;2022-11-23T05:37:27;4.87;;;2.30;;
830;SDS011;397;50.564;7.272;2022-11-23T05:39:54;12.50;;;2.67;;
830;SDS011;397;50.564;7.272;2022-11-23T05:42:22;11.23;;;3.57;;
830;SDS011;397;50.564;7.272;2022-11-23T05:44:49;7.67;;;2.17;;
830;SDS011;397;50.564;7.272;2022-11-23T05:47:17;9.60;;;2.70;;
830;SDS011;397;50.564;7.272;2022-11-23T05:49:44;13.30;;;2.37;;
830;SDS011;397;50.564;7.272;2022-11-23T05:52:12;7.40;;;2.67;;
830;SDS011;397;50.564;7.272;2022-11-23T05:54:39;4.73;;;2.77;;
830;SDS011;397;50.564;7.272;2022-11-23T05:57:07;10.10;;;3.93;;
830;SDS011;397;50.564;7.272;2022-11-23T05:59:35;9.57;;;2.63;;
830;SDS011;397;50.564;7.272;2022-11-23T06:02:02;11.67;;;3.27;;
830;SDS011;397;50.564;7.272;2022-11-23T06:04:30;8.30;;;2.57;;
830;SDS011;397;50.564;7.272;2022-11-23T06:06:57;6.03;;;2.23;;
830;SDS011;397;50.564;7.272;2022-11-23T06:09:26;12.50;;;2.23;;
830;SDS011;397;50.564;7.272;2022-11-23T06:11:54;10.10;;;3.13;;
830;SDS011;397;50.564;7.272;2022-11-23T06:14:21;8.80;;;2.70;;
830;SDS011;397;50.564;7.272;2022-11-23T06:16:49;8.63;;;1.90;;
830;SDS011;397;50.564;7.272;2022-11-23T06:19:17;12.30;;;2.40;;
830;SDS011;397;50.564;7.272;2022-11-23T06:21:44;5.53;;;2.43;;
830;SDS011;397;50.564;7.272;2022-11-23T06:24:12;7.40;;;2.60;;
830;SDS011;397;50.564;7.272;2022-11-23T06:26:39;6.07;;;3.80;;
830;SDS011;397;50.564;7.272;2022-11-23T06:29:07;6.87;;;2.40;;
830;SDS011;397;50.564;7.272;2022-11-23T06:31:34;6.80;;;2.47;;
830;SDS011;397;50.564;7.272;2022-11-23T06:34:02;7.30;;;2.67;;
830;SDS011;397;50.564;7.272;2022-11-23T06:36:29;6.70;;;2.70;;
830;SDS011;397;50.564;7.272;2022-11-23T06:38:57;5.93;;;2.27;;
830;SDS011;397;50.564;7.272;2022-11-23T06:41:24;13.17;;;3.07;;
830;SDS011;397;50.564;7.272;2022-11-23T06:43:52;7.00;;;2.90;;
830;SDS011;397;50.564;7.272;2022-11-23T06:46:19;15.67;;;2.90;;
830;SDS011;397;50.564;7.272;2022-11-23T06:48:47;6.87;;;2.80;;
830;SDS011;397;50.564;7.272;2022-11-23T06:51:14;8.20;;;2.63;;
830;SDS011;397;50.564;7.272;2022-11-23T06:53:42;5.17;;;2.53;;
830;SDS011;397;50.564;7.272;2022-11-23T06:56:09;13.57;;;3.77;;
830;SDS011;397;50.564;7.272;2022-11-23T06:58:37;11.73;;;2.90;;
830;SDS011;397;50.564;7.272;2022-11-23T07:01:05;9.20;;;2.93;;
830;SDS011;397;50.564;7.272;2022-11-23T07:03:34;15.13;;;2.57;;
830;SDS011;397;50.564;7.272;2022-11-23T07:06:08;7.87;;;2.53;;
830;SDS011;397;50.564;7.272;2022-11-23T07:08:36;8.87;;;3.37;;
830;SDS011;397;50.564;7.272;2022-11-23T07:11:09;9.03;;;2.80;;
830;SDS011;397;50.564;7.272;2022-11-23T07:13:37;12.67;;;2.80;;
830;SDS011;397;50.564;7.272;2022-11-23T07:16:05;9.03;;;3.07;;
830;SDS011;397;50.564;7.272;2022-11-23T07:18:33;11.77;;;2.60;;
830;SDS011;397;50.564;7.272;2022-11-23T07:21:00;9.40;;;2.60;;
830;SDS011;397;50.564;7.272;2022-11-23T07:23:28;9.90;;;2.67;;
830;SDS011;397;50.564;7.272;2022-11-23T07:25:55;15.50;;;2.80;;
830;SDS011;397;50.564;7.272;2022-11-23T07:28:23;10.23;;;3.07;;
830;SDS011;397;50.564;7.272;2022-11-23T07:30:50;9.83;;;2.90;;
830;SDS011;397;50.564;7.272;2022-11-23T07:33:18;8.53;;;2.60;;
830;SDS011;397;50.564;7.272;2022-11-23T07:35:45;14.70;;;2.67;;
830;SDS011;397;50.564;7.272;2022-11-23T07:38:13;9.43;;;3.40;;
830;SDS011;397;50.564;7.272;2022-11-23T07:40:41;12.17;;;3.90;;
830;SDS011;397;50.564;7.272;2022-11-23T07:43:08;5.07;;;2.90;;
830;SDS011;397;50.564;7.272;2022-11-23T07:45:36;8.83;;;2.70;;
830;SDS011;397;50.564;7.272;2022-11-23T07:48:04;10.93;;;3.13;;
830;SDS011;397;50.564;7.272;2022-11-23T07:50:33;10.00;;;2.63;;
830;SDS011;397;50.564;7.272;2022-11-23T07:53:02;16.67;;;3.50;;
830;SDS011;397;50.564;7.272;2022-11-23T07:55:32;16.30;;;3.37;;
830;SDS011;397;50.564;7.272;2022-11-23T07:58:00;11.73;;;3.93;;
830;SDS011;397;50.564;7.272;2022-11-23T08:00:28;9.63;;;3.20;;
830;SDS011;397;50.564;7.272;2022-11-23T08:02:56;9.93;;;2.93;;
830;SDS011;397;50.564;7.272;2022-11-23T08:05:24;12.57;;;3.40;;
830;SDS011;397;50.564;7.272;2022-11-23T08:08:01;8.80;;;2.60;;
830;SDS011;397;50.564;7.272;2022-11-23T08:10:30;11.17;;;4.30;;
830;SDS011;397;50.564;7.272;2022-11-23T08:13:03;11.60;;;3.50;;
830;SDS011;397;50.564;7.272;2022-11-23T08:15:31;11.43;;;3.03;;
830;SDS011;397;50.564;7.272;2022-11-23T08:18:00;6.13;;;2.40;;
830;SDS011;397;50.564;7.272;2022-11-23T08:20:29;9.77;;;2.73;;
830;SDS011;397;50.564;7.272;2022-11-23T08:22:58;7.00;;;2.53;;
830;SDS011;397;50.564;7.272;2022-11-23T08:25:26;11.03;;;3.07;;
830;SDS011;397;50.564;7.272;2022-11-23T08:27:55;6.93;;;3.27;;
830;SDS011;397;50.564;7.272;2022-11-23T08:30:27;10.13;;;3.07;;
830;SDS011;397;50.564;7.272;2022-11-23T08:32:56;10.93;;;3.37;;
830;SDS011;397;50.564;7.272;2022-11-23T08:35:24;8.90;;;3.07;;
830;SDS011;397;50.564;7.272;2022-11-23T08:37:51;13.37;;;3.60;;
830;SDS011;397;50.564;7.272;2022-11-23T08:40:19;7.70;;;2.87;;
830;SDS011;397;50.564;7.272;2022-11-23T08:42:46;8.80;;;3.40;;
830;SDS011;397;50.564;7.272;2022-11-23T08:45:14;8.20;;;3.60;;
830;SDS011;397;50.564;7.272;2022-11-23T08:47:41;10.43;;;2.60;;
830;SDS011;397;50.564;7.272;2022-11-23T08:50:09;11.07;;;3.13;;
830;SDS011;397;50.564;7.272;2022-11-23T08:52:36;13.47;;;4.03;;
830;SDS011;397;50.564;7.272;2022-11-23T08:55:04;12.73;;;4.40;;
830;SDS011;397;50.564;7.272;2022-11-23T08:57:32;9.23;;;2.83;;
830;SDS011;397;50.564;7.272;2022-11-23T08:59:59;14.13;;;3.43;;
830;SDS011;397;50.564;7.272;2022-11-23T09:02:27;8.80;;;3.37;;
830;SDS011;397;50.564;7.272;2022-11-23T09:04:54;8.23;;;2.73;;
830;SDS011;397;50.564;7.272;2022-11-23T09:07:22;9.07;;;3.13;;
830;SDS011;397;50.564;7.272;2022-11-23T09:09:49;14.10;;;3.63;;
830;SDS011;397;50.564;7.272;2022-11-23T09:12:17;9.73;;;3.10;;
830;SDS011;397;50.564;7.272;2022-11-23T09:14:44;8.30;;;3.90;;
830;SDS011;397;50.564;7.272;2022-11-23T09:17:12;7.70;;;4.30;;
830;SDS011;397;50.564;7.272;2022-11-23T09:19:39;11.27;;;3.97;;
830;SDS011;397;50.564;7.272;2022-11-23T09:22:07;7.23;;;4.17;;
830;SDS011;397;50.564;7.272;2022-11-23T09:24:34;10.87;;;5.07;;
830;SDS011;397;50.564;7.272;2022-11-23T09:27:02;13.37;;;4.60;;
830;SDS011;397;50.564;7.272;2022-11-23T09:29:29;5.60;;;3.83;;
830;SDS011;397;50.564;7.272;2022-11-23T09:31:57;13.47;;;4.40;;
830;SDS011;397;50.564;7.272;2022-11-23T09:34:24;11.53;;;5.70;;
830;SDS011;397;50.564;7.272;2022-11-23T09:36:52;8.50;;;4.80;;
830;SDS011;397;50.564;7.272;2022-11-23T09:39:21;12.77;;;4.67;;
830;SDS011;397;50.564;7.272;2022-11-23T09:44:23;14.40;;;5.73;;
830;SDS011;397;50.564;7.272;2022-11-23T09:47:05;12.97;;;5.60;;
830;SDS011;397;50.564;7.272;2022-11-23T09:52:28;10.30;;;4.20;;
830;SDS011;397;50.564;7.272;2022-11-23T09:54:57;11.03;;;4.43;;
830;SDS011;397;50.564;7.272;2022-11-23T09:57:39;9.57;;;4.57;;
830;SDS011;397;50.564;7.272;2022-11-23T10:00:17;12.03;;;4.90;;
830;SDS011;397;50.564;7.272;2022-11-23T10:02:48;12.40;;;5.17;;
830;SDS011;397;50.564;7.272;2022-11-23T10:05:17;12.13;;;5.03;;
830;SDS011;397;50.564;7.272;2022-11-23T10:10:40;6.90;;;4.37;;
830;SDS011;397;50.564;7.272;2022-11-23T10:13:43;13.10;;;5.43;;
830;SDS011;397;50.564;7.272;2022-11-23T10:16:17;11.50;;;6.00;;
830;SDS011;397;50.564;7.272;2022-11-23T10:18:57;8.63;;;4.13;;
830;SDS011;397;50.564;7.272;2022-11-23T10:21:31;15.40;;;4.43;;
830;SDS011;397;50.564;7.272;2022-11-23T10:24:19;9.00;;;4.63;;
830;SDS011;397;50.564;7.272;2022-11-23T10:26:50;8.20;;;4.60;;
830;SDS011;397;50.564;7.272;2022-11-23T10:29:35;9.20;;;3.70;;
830;SDS011;397;50.564;7.272;2022-11-23T10:32:00;8.53;;;4.13;;
830;SDS011;397;50.564;7.272;2022-11-23T10:34:35;10.53;;;3.50;;
830;SDS011;397;50.564;7.272;2022-11-23T10:37:15;11.40;;;4.30;;
830;SDS011;397;50.564;7.272;2022-11-23T10:39:44;7.63;;;2.80;;
830;SDS011;397;50.564;7.272;2022-11-23T10:42:58;6.60;;;3.03;;
830;SDS011;397;50.564;7.272;2022-11-23T10:44:48;8.70;;;3.27;;
830;SDS011;397;50.564;7.272;2022-11-23T10:50:18;11.03;;;3.20;;
830;SDS011;397;50.564;7.272;2022-11-23T10:52:36;5.90;;;3.03;;
830;SDS011;397;50.564;7.272;2022-11-23T10:55:04;4.23;;;3.60;;
830;SDS011;397;50.564;7.272;2022-11-23T10:57:40;6.57;;;2.80;;
830;SDS011;397;50.564;7.272;2022-11-23T11:02:51;7.77;;;2.73;;
830;SDS011;397;50.564;7.272;2022-11-23T11:08:12;7.60;;;3.90;;
830;SDS011;397;50.564;7.272;2022-11-23T11:10:37;10.60;;;4.73;;
830;SDS011;397;50.564;7.272;2022-11-23T11:13:22;10.73;;;4.30;;
830;SDS011;397;50.564;7.272;2022-11-23T11:16:01;9.40;;;4.17;;
830;SDS011;397;50.564;7.272;2022-11-23T11:18:32;7.30;;;4.27;;
830;SDS011;397;50.564;7.272;2022-11-23T11:21:05;8.90;;;4.33;;
830;SDS011;397;50.564;7.272;2022-11-23T11:23:34;9.80;;;5.57;;
830;SDS011;397;50.564;7.272;2022-11-23T11:26:24;8.20;;;4.10;;
830;SDS011;397;50.564;7.272;2022-11-23T11:28:52;9.47;;;4.67;;
830;SDS011;397;50.564;7.272;2022-11-23T11:31:22;9.53;;;4.00;;
830;SDS011;397;50.564;7.272;2022-11-23T11:34:01;8.60;;;4.47;;
830;SDS011;397;50.564;7.272;2022-11-23T11:39:46;8.27;;;4.10;;
830;SDS011;397;50.564;7.272;2022-11-23T11:42:17;7.80;;;3.97;;
830;SDS011;397;50.564;7.272;2022-11-23T11:44:48;8.57;;;3.30;;
830;SDS011;397;50.564;7.272;2022-11-23T11:47:24;6.43;;;3.03;;
830;SDS011;397;50.564;7.272;2022-11-23T11:49:56;7.60;;;3.37;;
830;SDS011;397;50.564;7.272;2022-11-23T11:52:28;6.73;;;3.77;;
830;SDS011;397;50.564;7.272;2022-11-23T11:55:03;15.43;;;4.30;;
830;SDS011;397;50.564;7.272;2022-11-23T11:57:54;10.10;;;3.03;;
830;SDS011;397;50.564;7.272;2022-11-23T12:00:19;6.20;;;3.00;;
830;SDS011;397;50.564;7.272;2022-11-23T12:02:56;9.80;;;3.33;;
830;SDS011;397;50.564;7.272;2022-11-23T12:05:24;9.80;;;2.77;;
830;SDS011;397;50.564;7.272;2022-11-23T12:08:12;14.70;;;3.47;;
830;SDS011;397;50.564;7.272;2022-11-23T12:10:42;5.97;;;3.20;;
830;SDS011;397;50.564;7.272;2022-11-23T12:13:23;5.00;;;2.20;;
830;SDS011;397;50.564;7.272;2022-11-23T12:21:55;12.27;;;3.10;;
830;SDS011;397;50.564;7.272;2022-11-23T12:33:06;5.10;;;2.30;;
830;SDS011;397;50.564;7.272;2022-11-23T12:38:36;5.37;;;2.40;;
830;SDS011;397;50.564;7.272;2022-11-23T12:41:25;7.30;;;4.50;;
830;SDS011;397;50.564;7.272;2022-11-23T12:43:59;4.33;;;2.23;;
830;SDS011;397;50.564;7.272;2022-11-23T12:46:37;4.53;;;2.23;;
830;SDS011;397;50.564;7.272;2022-11-23T13:08:34;7.80;;;1.83;;
830;SDS011;397;50.564;7.272;2022-11-23T13:20:29;5.17;;;2.23;;
830;SDS011;397;50.564;7.272;2022-11-23T13:23:01;3.97;;;2.17;;
830;SDS011;397;50.564;7.272;2022-11-23T13:25:30;7.33;;;2.10;;
830;SDS011;397;50.564;7.272;2022-11-23T13:28:00;4.70;;;1.90;;
830;SDS011;397;50.564;7.272;2022-11-23T13:30:38;5.43;;;2.17;;
830;SDS011;397;50.564;7.272;2022-11-23T13:33:01;5.23;;;2.43;;
830;SDS011;397;50.564;7.272;2022-11-23T13:40:44;7.60;;;1.73;;
830;SDS011;397;50.564;7.272;2022-11-23T13:43:15;5.67;;;2.00;;
830;SDS011;397;50.564;7.272;2022-11-23T13:48:46;5.60;;;2.40;;
830;SDS011;397;50.564;7.272;2022-11-23T13:51:31;9.97;;;1.70;;
830;SDS011;397;50.564;7.272;2022-11-23T13:54:04;4.40;;;1.80;;
830;SDS011;397;50.564;7.272;2022-11-23T13:56:34;6.30;;;2.07;;
830;SDS011;397;50.564;7.272;2022-11-23T14:04:36;4.17;;;1.23;;
830;SDS011;397;50.564;7.272;2022-11-23T14:07:24;8.03;;;2.10;;
830;SDS011;397;50.564;7.272;2022-11-23T14:10:02;5.13;;;1.80;;
830;SDS011;397;50.564;7.272;2022-11-23T14:13:32;7.97;;;2.07;;
830;SDS011;397;50.564;7.272;2022-11-23T14:15:11;4.00;;;1.60;;
830;SDS011;397;50.564;7.272;2022-11-23T14:20:29;6.10;;;1.93;;
830;SDS011;397;50.564;7.272;2022-11-23T14:23:10;6.63;;;2.27;;
830;SDS011;397;50.564;7.272;2022-11-23T14:28:54;3.37;;;1.60;;
830;SDS011;397;50.564;7.272;2022-11-23T14:31:26;5.90;;;2.13;;
830;SDS011;397;50.564;7.272;2022-11-23T14:34:00;6.37;;;1.63;;
830;SDS011;397;50.564;7.272;2022-11-23T14:39:46;5.63;;;2.27;;
830;SDS011;397;50.564;7.272;2022-11-23T14:42:17;4.93;;;2.10;;
830;SDS011;397;50.564;7.272;2022-11-23T14:44:47;4.77;;;1.90;;
830;SDS011;397;50.564;7.272;2022-11-23T14:47:23;4.73;;;1.87;;
830;SDS011;397;50.564;7.272;2022-11-23T14:49:52;6.10;;;2.13;;
830;SDS011;397;50.564;7.272;2022-11-23T14:52:24;6.77;;;1.97;;
830;SDS011;397;50.564;7.272;2022-11-23T14:54:57;6.17;;;2.60;;
830;SDS011;397;50.564;7.272;2022-11-23T14:57:28;6.23;;;2.13;;
830;SDS011;397;50.564;7.272;2022-11-23T15:00:00;8.03;;;1.87;;
830;SDS011;397;50.564;7.272;2022-11-23T15:02:32;8.33;;;1.93;;
830;SDS011;397;50.564;7.272;2022-11-23T15:05:04;5.20;;;2.23;;
830;SDS011;397;50.564;7.272;2022-11-23T15:07:43;4.43;;;1.87;;
830;SDS011;397;50.564;7.272;2022-11-23T15:13:16;5.80;;;2.60;;
830;SDS011;397;50.564;7.272;2022-11-23T15:15:46;14.20;;;2.30;;
830;SDS011;397;50.564;7.272;2022-11-23T15:18:26;5.97;;;2.17;;
830;SDS011;397;50.564;7.272;2022-11-23T15:20:53;6.60;;;1.87;;
830;SDS011;397;50.564;7.272;2022-11-23T15:23:23;9.30;;;5.47;;
830;SDS011;397;50.564;7.272;2022-11-23T15:25:53;5.10;;;1.97;;
830;SDS011;397;50.564;7.272;2022-11-23T15:28:24;8.10;;;2.33;;
830;SDS011;397;50.564;7.272;2022-11-23T15:30:53;9.77;;;2.60;;
830;SDS011;397;50.564;7.272;2022-11-23T15:33:22;5.30;;;2.20;;
830;SDS011;397;50.564;7.272;2022-11-23T15:35:49;5.93;;;2.50;;
830;SDS011;397;50.564;7.272;2022-11-23T15:38:18;8.33;;;2.30;;
830;SDS011;397;50.564;7.272;2022-11-23T15:40:47;6.40;;;2.60;;
830;SDS011;397;50.564;7.272;2022-11-23T15:43:18;6.03;;;2.60;;
830;SDS011;397;50.564;7.272;2022-11-23T15:48:21;6.53;;;2.60;;
830;SDS011;397;50.564;7.272;2022-11-23T15:50:49;3.43;;;1.90;;
830;SDS011;397;50.564;7.272;2022-11-23T15:53:26;6.07;;;2.30;;
830;SDS011;397;50.564;7.272;2022-11-23T15:56:03;10.20;;;2.60;;
830;SDS011;397;50.564;7.272;2022-11-23T15:58:29;6.50;;;2.67;;
830;SDS011;397;50.564;7.272;2022-11-23T16:01:10;4.63;;;3.10;;
830;SDS011;397;50.564;7.272;2022-11-23T16:03:40;4.37;;;2.33;;
830;SDS011;397;50.564;7.272;2022-11-23T16:06:14;7.10;;;3.70;;
830;SDS011;397;50.564;7.272;2022-11-23T16:08:42;10.67;;;2.93;;
830;SDS011;397;50.564;7.272;2022-11-23T16:11:17;7.60;;;2.70;;
830;SDS011;397;50.564;7.272;2022-11-23T16:13:47;4.97;;;2.00;;
830;SDS011;397;50.564;7.272;2022-11-23T16:16:16;7.40;;;2.23;;
830;SDS011;397;50.564;7.272;2022-11-23T16:18:46;6.53;;;2.10;;
830;SDS011;397;50.564;7.272;2022-11-23T16:21:20;11.30;;;2.83;;
830;SDS011;397;50.564;7.272;2022-11-23T16:23:50;6.83;;;2.10;;
830;SDS011;397;50.564;7.272;2022-11-23T16:26:20;8.63;;;3.20;;
830;SDS011;397;50.564;7.272;2022-11-23T16:28:56;6.93;;;4.80;;
830;SDS011;397;50.564;7.272;2022-11-23T16:34:15;8.83;;;5.10;;
830;SDS011;397;50.564;7.272;2022-11-23T16:36:40;6.93;;;3.80;;
830;SDS011;397;50.564;7.272;2022-11-23T16:39:08;5.77;;;2.60;;
830;SDS011;397;50.564;7.272;2022-11-23T16:41:36;5.70;;;2.90;;
830;SDS011;397;50.564;7.272;2022-11-23T16:44:03;5.53;;;2.90;;
830;SDS011;397;50.564;7.272;2022-11-23T16:46:31;8.90;;;4.13;;
830;SDS011;397;50.564;7.272;2022-11-23T16:48:59;8.90;;;3.60;;
830;SDS011;397;50.564;7.272;2022-11-23T16:51:28;12.80;;;3.83;;
830;SDS011;397;50.564;7.272;2022-11-23T16:53:56;7.30;;;3.07;;
830;SDS011;397;50.564;7.272;2022-11-23T16:56:24;10.47;;;3.10;;
830;SDS011;397;50.564;7.272;2022-11-23T16:58:52;12.30;;;3.30;;
830;SDS011;397;50.564;7.272;2022-11-23T17:01:22;8.77;;;3.20;;
830;SDS011;397;50.564;7.272;2022-11-23T17:03:50;4.33;;;2.47;;
830;SDS011;397;50.564;7.272;2022-11-23T17:06:18;4.73;;;1.93;;
830;SDS011;397;50.564;7.272;2022-11-23T17:08:50;8.10;;;2.87;;
830;SDS011;397;50.564;7.272;2022-11-23T17:11:20;11.30;;;3.90;;
830;SDS011;397;50.564;7.272;2022-11-23T17:13:50;7.77;;;2.60;;
830;SDS011;397;50.564;7.272;2022-11-23T17:16:21;12.77;;;3.43;;
830;SDS011;397;50.564;7.272;2022-11-23T17:18:51;6.93;;;3.07;;
830;SDS011;397;50.564;7.272;2022-11-23T17:21:19;5.70;;;2.57;;
830;SDS011;397;50.564;7.272;2022-11-23T17:23:46;4.23;;;2.30;;
830;SDS011;397;50.564;7.272;2022-11-23T17:26:21;4.83;;;2.00;;
830;SDS011;397;50.564;7.272;2022-11-23T17:28:53;7.00;;;3.50;;
830;SDS011;397;50.564;7.272;2022-11-23T17:31:21;5.90;;;2.80;;
830;SDS011;397;50.564;7.272;2022-11-23T17:33:49;3.33;;;2.30;;
830;SDS011;397;50.564;7.272;2022-11-23T17:36:16;3.60;;;1.97;;